Time;durP1;ratioP1;P1;durP2;ratioP2;P2;SDS_P1;SDS_P2;PMS_P1;PMS_P2;Temp;Humidity;BMP_temperature;BMP_pressure;BME280_temperature;BME280_humidity;BME280_pressure;Samples;Min_cycle;Max_cycle;Signal;HPM_P1;HPM_P2
2022/05/25 00:00:37;;;;;;;1.55;1.10;;;;;;;;;;7419081;19;20023;-77
2022/05/25 00:03:04;;;;;;;1.63;1.00;;;;;;;;;;7418815;19;20007;-77
2022/05/25 00:05:33;;;;;;;3.10;1.10;;;;;;;;;;7414123;19;20335;-76
2022/05/25 00:07:59;;;;;;;1.08;1.05;;;;;;;;;;7420907;19;22379;-77
2022/05/25 00:10:24;;;;;;;5.53;1.30;;;;;;;;;;7417635;19;20014;-77
2022/05/25 00:12:49;;;;;;;5.32;1.10;;;;;;;;;;7416552;19;20021;-77
2022/05/25 00:15:15;;;;;;;2.78;0.93;;;;;;;;;;7413254;19;20443;-77
2022/05/25 00:17:40;;;;;;;1.88;1.00;;;;;;;;;;7421864;19;20553;-77
2022/05/25 00:20:08;;;;;;;1.13;1.02;;;;;;;;;;7417561;19;20013;-77
2022/05/25 00:22:40;;;;;;;0.98;0.93;;;;;;;;;;7418577;19;20117;-76
2022/05/25 00:25:07;;;;;;;2.45;1.10;;;;;;;;;;7416761;19;20520;-75
2022/05/25 00:27:32;;;;;;;1.27;1.17;;;;;;;;;;7420783;19;20097;-77
2022/05/25 00:29:57;;;;;;;2.15;1.20;;;;;;;;;;7418084;19;20014;-76
2022/05/25 00:32:23;;;;;;;2.25;0.90;;;;;;;;;;7419296;19;20046;-76
2022/05/25 00:34:48;;;;;;;0.98;0.85;;;;;;;;;;7418335;19;20026;-77
2022/05/25 00:37:13;;;;;;;1.30;1.20;;;;;;;;;;7416643;19;20007;-77
2022/05/25 00:39:40;;;;;;;1.33;1.10;;;;;;;;;;7415592;19;20010;-74
2022/05/25 00:42:06;;;;;;;1.35;1.17;;;;;;;;;;7422350;19;20592;-77
2022/05/25 00:44:31;;;;;;;1.85;1.13;;;;;;;;;;7415975;19;20006;-75
2022/05/25 00:46:57;;;;;;;2.35;1.35;;;;;;;;;;7420573;19;19998;-77
2022/05/25 00:49:23;;;;;;;1.35;1.25;;;;;;;;;;7419645;19;20014;-74
2022/05/25 00:52:07;;;;;;;1.23;0.90;;;;;;;;;;7415636;19;20028;-77
2022/05/25 00:54:38;;;;;;;1.48;1.10;;;;;;;;;;7399845;19;20014;-77
2022/05/25 00:57:14;;;;;;;1.23;1.13;;;;;;;;;;7388436;19;20388;-76
2022/05/25 01:00:07;;;;;;;1.13;1.08;;;;;;;;;;7385473;19;20014;-76
2022/05/25 01:02:42;;;;;;;2.00;1.30;;;;;;;;;;7390521;19;20370;-77
2022/05/25 01:05:09;;;;;;;1.48;1.20;;;;;;;;;;7388121;19;20011;-77
2022/05/25 01:08:01;;;;;;;3.13;1.60;;;;;;;;;;7390211;19;20026;-77
2022/05/25 01:10:45;;;;;;;1.13;1.02;;;;;;;;;;7381760;19;20002;-76
2022/05/25 01:13:43;;;;;;;3.20;1.50;;;;;;;;;;7388751;19;20015;-75
2022/05/25 01:16:19;;;;;;;3.72;1.45;;;;;;;;;;7388710;19;20011;-77
2022/05/25 01:18:58;;;;;;;1.50;1.40;;;;;;;;;;7389521;19;20043;-77
2022/05/25 01:21:30;;;;;;;2.05;1.20;;;;;;;;;;7387766;19;20018;-77
2022/05/25 01:24:12;;;;;;;1.90;1.10;;;;;;;;;;7385354;19;20038;-77
2022/05/25 01:27:25;;;;;;;1.60;1.00;;;;;;;;;;7386883;19;20014;-75
2022/05/25 01:30:08;;;;;;;1.58;1.23;;;;;;;;;;7383725;19;20014;-77
2022/05/25 01:32:56;;;;;;;1.27;1.15;;;;;;;;;;7389656;19;20017;-76
2022/05/25 01:35:38;;;;;;;2.25;1.10;;;;;;;;;;7381196;19;20021;-76
2022/05/25 01:38:14;;;;;;;5.88;1.45;;;;;;;;;;7386136;19;20003;-75
2022/05/25 01:40:57;;;;;;;2.58;1.35;;;;;;;;;;7387938;19;20027;-76
2022/05/25 01:43:34;;;;;;;1.98;1.17;;;;;;;;;;7381202;19;20086;-76
2022/05/25 01:46:06;;;;;;;3.95;1.50;;;;;;;;;;7385643;19;20006;-76
2022/05/25 01:48:35;;;;;;;1.63;1.10;;;;;;;;;;7386478;19;20010;-76
2022/05/25 01:51:07;;;;;;;4.10;1.27;;;;;;;;;;7387548;19;20014;-76
2022/05/25 01:53:43;;;;;;;3.45;1.42;;;;;;;;;;7384582;19;20010;-74
2022/05/25 01:56:11;;;;;;;0.93;0.93;;;;;;;;;;7385018;19;20006;-77
2022/05/25 01:58:40;;;;;;;1.38;1.15;;;;;;;;;;7389475;19;20022;-77
2022/05/25 02:01:08;;;;;;;0.98;0.88;;;;;;;;;;7380173;19;20002;-77
2022/05/25 02:06:26;;;;;;;1.63;1.40;;;;;;;;;;7382868;19;20347;-76
2022/05/25 02:09:13;;;;;;;1.20;1.10;;;;;;;;;;7387943;19;20463;-77
2022/05/25 02:11:45;;;;;;;4.82;1.40;;;;;;;;;;7387790;19;20475;-74
2022/05/25 02:14:34;;;;;;;1.95;1.23;;;;;;;;;;7385409;19;20018;-76
2022/05/25 02:17:02;;;;;;;1.13;1.05;;;;;;;;;;7387311;19;20114;-76
2022/05/25 02:19:56;;;;;;;2.78;1.10;;;;;;;;;;7388353;19;20023;-76
2022/05/25 02:22:37;;;;;;;6.05;1.02;;;;;;;;;;7388292;19;20006;-75
2022/05/25 02:25:20;;;;;;;1.13;1.08;;;;;;;;;;7383105;19;20018;-76
2022/05/25 02:28:07;;;;;;;2.13;1.40;;;;;;;;;;7385156;19;20025;-77
2022/05/25 02:30:35;;;;;;;4.15;1.38;;;;;;;;;;7387477;19;20022;-77
2022/05/25 02:33:20;;;;;;;1.50;1.40;;;;;;;;;;7385841;19;20009;-77
2022/05/25 02:35:46;;;;;;;1.90;1.23;;;;;;;;;;7384573;19;20082;-77
2022/05/25 02:38:13;;;;;;;1.48;1.38;;;;;;;;;;7386362;19;20097;-74
2022/05/25 02:40:39;;;;;;;4.85;1.33;;;;;;;;;;7386581;19;20013;-76
2022/05/25 02:43:06;;;;;;;2.78;0.90;;;;;;;;;;7385813;19;20028;-75
2022/05/25 02:45:32;;;;;;;1.60;1.17;;;;;;;;;;7382357;19;20006;-77
2022/05/25 02:47:57;;;;;;;1.08;1.02;;;;;;;;;;7385616;19;20381;-77
2022/05/25 02:50:22;;;;;;;1.83;1.20;;;;;;;;;;7384959;19;20002;-77
2022/05/25 02:52:48;;;;;;;1.40;1.20;;;;;;;;;;7380934;19;20018;-76
2022/05/25 02:55:14;;;;;;;2.50;1.10;;;;;;;;;;7382843;19;20007;-76
2022/05/25 02:57:39;;;;;;;1.63;0.90;;;;;;;;;;7384322;19;20107;-75
2022/05/25 03:00:07;;;;;;;1.60;1.10;;;;;;;;;;7385675;19;20017;-76
2022/05/25 03:02:33;;;;;;;1.55;1.20;;;;;;;;;;7387854;19;20014;-77
2022/05/25 03:04:58;;;;;;;5.07;1.00;;;;;;;;;;7384623;19;20021;-74
2022/05/25 03:07:23;;;;;;;1.40;1.15;;;;;;;;;;7384263;19;20017;-76
2022/05/25 03:09:49;;;;;;;1.40;1.30;;;;;;;;;;7384418;19;20003;-77
2022/05/25 03:12:15;;;;;;;1.67;1.10;;;;;;;;;;7385697;19;20015;-76
2022/05/25 03:14:41;;;;;;;1.92;1.30;;;;;;;;;;7382250;19;20009;-77
2022/05/25 03:17:10;;;;;;;1.48;1.38;;;;;;;;;;7386929;19;20027;-77
2022/05/25 03:19:39;;;;;;;3.15;1.30;;;;;;;;;;7383842;19;20026;-75
2022/05/25 03:22:04;;;;;;;1.10;1.00;;;;;;;;;;7387884;19;20166;-77
2022/05/25 03:24:30;;;;;;;1.60;1.25;;;;;;;;;;7381651;19;20491;-76
2022/05/25 03:26:55;;;;;;;3.30;1.35;;;;;;;;;;7386030;19;20021;-76
2022/05/25 03:29:20;;;;;;;1.70;1.13;;;;;;;;;;7381793;19;20009;-77
2022/05/25 03:31:46;;;;;;;0.90;0.90;;;;;;;;;;7385896;19;20014;-75
2022/05/25 03:34:11;;;;;;;2.15;1.50;;;;;;;;;;7376913;19;20431;-77
2022/05/25 03:36:36;;;;;;;2.35;1.40;;;;;;;;;;7389357;19;20026;-77
2022/05/25 03:39:02;;;;;;;2.15;1.30;;;;;;;;;;7386034;19;19998;-76
2022/05/25 03:41:27;;;;;;;3.15;1.52;;;;;;;;;;7382623;19;20015;-77
2022/05/25 03:43:52;;;;;;;2.25;1.45;;;;;;;;;;7386835;19;20027;-76
2022/05/25 03:46:18;;;;;;;1.45;1.35;;;;;;;;;;7387790;19;20021;-76
2022/05/25 03:48:43;;;;;;;4.00;1.40;;;;;;;;;;7381989;19;20370;-77
2022/05/25 03:51:09;;;;;;;1.92;1.40;;;;;;;;;;7380931;19;20078;-77
2022/05/25 03:53:34;;;;;;;2.25;1.58;;;;;;;;;;7375983;19;20006;-79
2022/05/25 03:56:00;;;;;;;1.70;1.60;;;;;;;;;;7382367;19;20006;-76
2022/05/25 03:58:25;;;;;;;2.97;1.70;;;;;;;;;;7384563;19;20413;-77
2022/05/25 04:00:50;;;;;;;1.90;1.73;;;;;;;;;;7382442;19;20478;-78
2022/05/25 04:03:16;;;;;;;1.67;1.45;;;;;;;;;;7374841;19;20012;-77
2022/05/25 04:05:42;;;;;;;2.50;1.63;;;;;;;;;;7373925;19;20029;-77
2022/05/25 04:08:08;;;;;;;3.33;1.98;;;;;;;;;;7377691;19;20374;-75
2022/05/25 04:10:34;;;;;;;2.00;1.80;;;;;;;;;;7382830;19;20034;-77
2022/05/25 04:12:59;;;;;;;2.10;1.90;;;;;;;;;;7380569;19;20007;-77
2022/05/25 04:15:27;;;;;;;2.53;1.98;;;;;;;;;;7382792;19;20002;-77
2022/05/25 04:17:53;;;;;;;1.85;1.67;;;;;;;;;;7383280;19;20007;-77
2022/05/25 04:20:20;;;;;;;3.78;2.20;;;;;;;;;;7384923;19;20321;-77
2022/05/25 04:22:45;;;;;;;2.20;1.95;;;;;;;;;;7384972;19;20482;-76
2022/05/25 04:25:13;;;;;;;3.00;2.10;;;;;;;;;;7380258;19;20090;-75
2022/05/25 04:27:41;;;;;;;2.47;2.28;;;;;;;;;;7383049;19;20010;-78
2022/05/25 04:30:09;;;;;;;1.98;1.65;;;;;;;;;;7384741;19;20089;-78
2022/05/25 04:32:34;;;;;;;3.22;2.15;;;;;;;;;;7390004;19;20365;-77
2022/05/25 04:34:59;;;;;;;3.63;2.22;;;;;;;;;;7389968;19;20006;-76
2022/05/25 04:40:12;;;;;;;3.67;2.30;;;;;;;;;;7391326;19;20027;-76
2022/05/25 04:42:38;;;;;;;4.90;2.20;;;;;;;;;;7391469;19;20007;-76
2022/05/25 04:45:04;;;;;;;3.00;2.38;;;;;;;;;;7386406;19;20018;-77
2022/05/25 04:47:31;;;;;;;3.15;2.45;;;;;;;;;;7387614;19;20049;-76
2022/05/25 04:49:58;;;;;;;2.95;2.33;;;;;;;;;;7391584;19;20010;-77
2022/05/25 04:52:23;;;;;;;3.65;2.20;;;;;;;;;;7390623;19;20014;-76
2022/05/25 04:54:49;;;;;;;2.58;2.30;;;;;;;;;;7387138;19;20010;-78
2022/05/25 04:57:20;;;;;;;3.67;2.28;;;;;;;;;;7393126;19;20010;-77
2022/05/25 04:59:59;;;;;;;2.92;2.33;;;;;;;;;;7390908;19;20018;-76
2022/05/25 05:02:25;;;;;;;3.20;2.47;;;;;;;;;;7391398;19;20017;-78
2022/05/25 05:04:50;;;;;;;2.53;2.10;;;;;;;;;;7389589;19;20348;-78
2022/05/25 05:07:15;;;;;;;4.47;3.00;;;;;;;;;;7387648;19;20023;-77
2022/05/25 05:09:43;;;;;;;3.85;2.90;;;;;;;;;;7385411;19;20014;-77
2022/05/25 05:12:09;;;;;;;3.33;2.80;;;;;;;;;;7387927;19;20114;-77
2022/05/25 05:14:35;;;;;;;3.47;2.90;;;;;;;;;;7388546;19;20014;-76
2022/05/25 05:17:03;;;;;;;3.28;2.72;;;;;;;;;;7393628;19;19999;-76
2022/05/25 05:19:29;;;;;;;2.40;2.17;;;;;;;;;;7390353;19;20003;-76
2022/05/25 05:21:55;;;;;;;2.60;2.30;;;;;;;;;;7388852;19;20006;-77
2022/05/25 05:24:21;;;;;;;4.78;2.25;;;;;;;;;;7388978;19;20043;-78
2022/05/25 05:26:47;;;;;;;2.33;2.00;;;;;;;;;;7387257;19;20014;-78
2022/05/25 05:29:12;;;;;;;2.58;1.73;;;;;;;;;;7388701;19;20011;-76
2022/05/25 05:31:38;;;;;;;2.60;1.77;;;;;;;;;;7387194;19;20533;-77
2022/05/25 05:34:03;;;;;;;2.83;1.90;;;;;;;;;;7389594;19;20026;-77
2022/05/25 05:36:34;;;;;;;2.80;1.60;;;;;;;;;;7389836;19;20348;-77
2022/05/25 05:39:07;;;;;;;3.03;1.90;;;;;;;;;;7390754;19;20006;-77
2022/05/25 05:41:41;;;;;;;3.20;1.98;;;;;;;;;;7389574;19;20401;-77
2022/05/25 05:44:09;;;;;;;2.15;1.80;;;;;;;;;;7388282;19;20014;-77
2022/05/25 05:46:38;;;;;;;5.13;1.58;;;;;;;;;;7390847;19;20010;-77
2022/05/25 05:49:05;;;;;;;1.50;1.40;;;;;;;;;;7393333;19;20529;-77
2022/05/25 05:51:31;;;;;;;1.73;1.63;;;;;;;;;;7389457;19;20062;-77
2022/05/25 05:53:56;;;;;;;2.80;1.65;;;;;;;;;;7388716;19;20416;-77
2022/05/25 05:56:22;;;;;;;2.05;1.85;;;;;;;;;;7392314;19;20010;-78
2022/05/25 05:58:47;;;;;;;2.00;1.80;;;;;;;;;;7390526;19;20031;-78
2022/05/25 06:01:12;;;;;;;2.17;1.98;;;;;;;;;;7387349;19;20013;-77
2022/05/25 06:03:37;;;;;;;2.72;1.40;;;;;;;;;;7388943;19;20018;-77
2022/05/25 06:06:03;;;;;;;4.10;1.60;;;;;;;;;;7390527;19;20400;-79
2022/05/25 06:08:29;;;;;;;1.50;1.35;;;;;;;;;;7391701;19;20055;-77
2022/05/25 06:10:55;;;;;;;1.48;1.20;;;;;;;;;;7391636;19;20018;-77
2022/05/25 06:13:20;;;;;;;1.50;1.17;;;;;;;;;;7390142;19;20633;-77
2022/05/25 06:21:16;;;;;;;1.60;0.90;;;;;;;;;;7392491;19;20025;-77
2022/05/25 06:23:42;;;;;;;5.28;1.23;;;;;;;;;;7387308;19;20081;-77
2022/05/25 06:26:07;;;;;;;1.20;1.10;;;;;;;;;;7387677;19;20010;-77
2022/05/25 06:28:33;;;;;;;2.58;1.23;;;;;;;;;;7389816;19;20071;-77
2022/05/25 06:30:58;;;;;;;1.83;1.30;;;;;;;;;;7389517;19;20465;-77
2022/05/25 06:33:24;;;;;;;1.83;1.30;;;;;;;;;;7387089;19;20463;-77
2022/05/25 06:35:49;;;;;;;1.58;1.30;;;;;;;;;;7386632;19;20070;-77
2022/05/25 06:38:15;;;;;;;2.67;1.58;;;;;;;;;;7384330;19;20003;-77
2022/05/25 06:40:40;;;;;;;2.42;1.40;;;;;;;;;;7383992;19;20017;-77
2022/05/25 06:43:06;;;;;;;2.67;1.40;;;;;;;;;;7390818;19;20082;-78
2022/05/25 06:45:31;;;;;;;1.52;1.40;;;;;;;;;;7390107;19;20002;-78
2022/05/25 06:47:56;;;;;;;1.20;1.10;;;;;;;;;;7395153;19;20018;-76
2022/05/25 06:50:21;;;;;;;1.30;1.20;;;;;;;;;;7396764;19;20013;-78
2022/05/25 06:52:47;;;;;;;2.17;1.20;;;;;;;;;;7391896;19;20009;-76
2022/05/25 06:55:12;;;;;;;1.02;0.80;;;;;;;;;;7380663;19;20531;-78
2022/05/25 06:57:37;;;;;;;1.33;0.90;;;;;;;;;;7390033;19;20011;-78
2022/05/25 07:00:04;;;;;;;0.70;0.60;;;;;;;;;;7384754;19;20032;-76
2022/05/25 07:02:29;;;;;;;0.88;0.70;;;;;;;;;;7387860;19;20037;-78
2022/05/25 07:04:54;;;;;;;1.00;0.90;;;;;;;;;;7386733;19;20010;-78
2022/05/25 07:07:20;;;;;;;1.05;0.90;;;;;;;;;;7390489;19;20014;-79
2022/05/25 07:09:45;;;;;;;0.80;0.80;;;;;;;;;;7388297;19;20019;-76
2022/05/25 07:12:11;;;;;;;1.58;0.85;;;;;;;;;;7389976;19;20021;-79
2022/05/25 07:14:37;;;;;;;1.02;0.80;;;;;;;;;;7391820;19;20744;-79
2022/05/25 07:17:03;;;;;;;1.00;0.80;;;;;;;;;;7387461;19;20027;-78
2022/05/25 07:19:29;;;;;;;0.73;0.73;;;;;;;;;;7392243;19;20010;-78
2022/05/25 07:21:55;;;;;;;0.82;0.70;;;;;;;;;;7389244;19;20024;-77
2022/05/25 07:24:20;;;;;;;0.80;0.80;;;;;;;;;;7388824;19;20384;-78
2022/05/25 07:26:45;;;;;;;2.22;0.80;;;;;;;;;;7393965;19;20015;-78
2022/05/25 07:29:12;;;;;;;1.13;0.65;;;;;;;;;;7399128;19;21155;-77
2022/05/25 07:31:52;;;;;;;0.73;0.60;;;;;;;;;;7398046;19;20010;-79
2022/05/25 07:34:24;;;;;;;0.70;0.60;;;;;;;;;;7391561;19;20107;-80
2022/05/25 07:37:16;;;;;;;0.90;0.60;;;;;;;;;;7391546;19;20006;-81
2022/05/25 07:39:50;;;;;;;1.02;0.70;;;;;;;;;;7393764;19;20002;-79
2022/05/25 07:42:18;;;;;;;1.37;0.83;;;;;;;;;;7387398;19;20018;-79
2022/05/25 07:45:03;;;;;;;0.80;0.77;;;;;;;;;;7394127;19;20339;-78
2022/05/25 07:47:31;;;;;;;1.27;0.75;;;;;;;;;;7392828;19;20011;-78
2022/05/25 07:49:57;;;;;;;0.90;0.60;;;;;;;;;;7397090;19;20019;-79
2022/05/25 07:52:25;;;;;;;1.70;0.65;;;;;;;;;;7395470;19;20010;-77
2022/05/25 07:54:50;;;;;;;1.08;0.60;;;;;;;;;;7386012;19;20022;-77
2022/05/25 07:57:16;;;;;;;0.95;0.50;;;;;;;;;;7397754;19;20007;-78
2022/05/25 07:59:42;;;;;;;1.48;0.70;;;;;;;;;;7395860;19;20006;-79
2022/05/25 08:08:02;;;;;;;1.05;0.90;;;;;;;;;;7397999;19;20013;-80
2022/05/25 08:10:27;;;;;;;0.57;0.50;;;;;;;;;;7397086;19;20046;-78
2022/05/25 08:12:55;;;;;;;0.47;0.47;;;;;;;;;;7396076;19;20414;-76
2022/05/25 08:15:21;;;;;;;1.55;0.60;;;;;;;;;;7394367;19;20044;-78
2022/05/25 08:17:46;;;;;;;0.52;0.52;;;;;;;;;;7398837;19;20006;-78
2022/05/25 08:20:12;;;;;;;2.25;0.60;;;;;;;;;;7401473;19;20010;-78
2022/05/25 08:22:38;;;;;;;1.33;0.80;;;;;;;;;;7403680;19;20014;-79
2022/05/25 08:25:05;;;;;;;0.73;0.60;;;;;;;;;;7389579;19;20014;-76
2022/05/25 08:27:31;;;;;;;3.08;0.98;;;;;;;;;;7395534;19;20021;-79
2022/05/25 08:29:57;;;;;;;0.68;0.52;;;;;;;;;;7404685;19;20455;-79
2022/05/25 08:32:22;;;;;;;1.20;0.80;;;;;;;;;;7402874;19;20014;-78
2022/05/25 08:34:48;;;;;;;3.83;1.10;;;;;;;;;;7391403;19;20022;-77
2022/05/25 08:37:13;;;;;;;0.73;0.55;;;;;;;;;;7391763;19;20010;-78
2022/05/25 08:39:39;;;;;;;0.77;0.77;;;;;;;;;;7396950;19;20010;-77
2022/05/25 08:42:07;;;;;;;1.05;0.90;;;;;;;;;;7396976;19;20487;-77
2022/05/25 08:44:33;;;;;;;0.65;0.60;;;;;;;;;;7394739;19;20081;-76
2022/05/25 08:47:01;;;;;;;6.28;1.00;;;;;;;;;;7395009;19;20022;-76
2022/05/25 08:49:30;;;;;;;1.02;0.50;;;;;;;;;;7398988;19;20014;-77
2022/05/25 08:51:58;;;;;;;0.63;0.40;;;;;;;;;;7395337;19;20034;-76
2022/05/25 08:54:26;;;;;;;1.27;0.60;;;;;;;;;;7395732;19;20007;-77
2022/05/25 08:57:00;;;;;;;1.05;0.70;;;;;;;;;;7393492;19;20103;-78
2022/05/25 08:59:25;;;;;;;0.95;0.50;;;;;;;;;;7395785;19;20018;-77
2022/05/25 09:02:21;;;;;;;1.87;0.70;;;;;;;;;;7395154;19;20031;-76
2022/05/25 09:05:25;;;;;;;1.85;0.30;;;;;;;;;;7386456;19;20264;-78
2022/05/25 09:07:50;;;;;;;0.60;0.60;;;;;;;;;;7382267;19;20013;-77
2022/05/25 09:10:17;;;;;;;0.40;0.40;;;;;;;;;;7390528;19;20107;-74
2022/05/25 09:12:47;;;;;;;2.15;0.50;;;;;;;;;;7392416;19;20433;-76
2022/05/25 09:15:25;;;;;;;0.40;0.40;;;;;;;;;;7389376;19;20015;-77
2022/05/25 09:18:10;;;;;;;0.70;0.43;;;;;;;;;;7391175;19;20002;-78
2022/05/25 09:20:40;;;;;;;1.58;0.70;;;;;;;;;;7388364;19;20022;-76
2022/05/25 09:23:06;;;;;;;0.38;0.35;;;;;;;;;;7388183;19;20074;-77
2022/05/25 09:25:32;;;;;;;0.40;0.40;;;;;;;;;;7393239;19;20609;-76
2022/05/25 09:28:07;;;;;;;0.63;0.63;;;;;;;;;;7395850;19;20027;-78
2022/05/25 09:30:34;;;;;;;;;;;;;;;;;;7396413;19;20407;-78
2022/05/25 09:33:14;;;;;;;1.33;0.70;;;;;;;;;;7395489;19;19919;-78
2022/05/25 09:35:47;;;;;;;0.93;0.73;;;;;;;;;;7395364;19;20013;-77
2022/05/25 09:38:32;;;;;;;0.75;0.73;;;;;;;;;;7397865;19;20007;-78
2022/05/25 09:41:04;;;;;;;1.20;0.50;;;;;;;;;;7393982;19;20085;-78
2022/05/25 09:43:30;;;;;;;0.77;0.50;;;;;;;;;;7396928;19;19995;-77
2022/05/25 09:45:58;;;;;;;3.03;0.68;;;;;;;;;;7393829;19;20486;-79
2022/05/25 09:48:24;;;;;;;0.88;0.68;;;;;;;;;;7396463;19;20106;-78
2022/05/25 09:50:52;;;;;;;1.15;0.55;;;;;;;;;;7398973;19;20048;-76
2022/05/25 09:53:21;;;;;;;1.88;0.50;;;;;;;;;;7393947;19;20002;-78
2022/05/25 09:55:53;;;;;;;0.40;0.40;;;;;;;;;;7394740;19;20108;-77
2022/05/25 09:58:34;;;;;;;1.00;0.70;;;;;;;;;;7396092;19;20018;-78
2022/05/25 10:01:05;;;;;;;1.23;0.80;;;;;;;;;;7398155;19;20002;-78
2022/05/25 10:03:42;;;;;;;0.70;0.70;;;;;;;;;;7395909;19;20010;-75
2022/05/25 10:06:24;;;;;;;1.33;0.60;;;;;;;;;;7395322;19;20010;-76
2022/05/25 10:08:52;;;;;;;1.08;0.63;;;;;;;;;;7398313;19;20014;-78
2022/05/25 10:11:28;;;;;;;1.27;0.73;;;;;;;;;;7398371;19;20033;-76
2022/05/25 10:14:15;;;;;;;1.48;0.90;;;;;;;;;;7394669;19;20007;-76
2022/05/25 10:16:41;;;;;;;0.75;0.35;;;;;;;;;;7398662;19;20015;-78
2022/05/25 10:19:14;;;;;;;0.70;0.70;;;;;;;;;;7394188;19;20071;-76
2022/05/25 10:21:49;;;;;;;2.50;0.90;;;;;;;;;;7394783;19;20193;-77
2022/05/25 10:24:33;;;;;;;0.88;0.70;;;;;;;;;;7395245;19;20017;-78
2022/05/25 10:27:01;;;;;;;4.07;0.77;;;;;;;;;;7387717;19;20014;-77
2022/05/25 10:38:06;;;;;;;2.28;0.75;;;;;;;;;;7385267;19;20054;-77
2022/05/25 10:40:32;;;;;;;0.77;0.70;;;;;;;;;;7383627;19;20014;-77
2022/05/25 10:42:59;;;;;;;0.45;0.40;;;;;;;;;;7388584;19;20014;-75
2022/05/25 10:45:34;;;;;;;1.75;0.57;;;;;;;;;;7382242;19;20003;-75
2022/05/25 10:48:13;;;;;;;1.23;0.60;;;;;;;;;;7388589;19;20020;-76
2022/05/25 10:50:55;;;;;;;0.90;0.60;;;;;;;;;;7387704;19;20021;-77
2022/05/25 10:56:50;;;;;;;0.98;0.40;;;;;;;;;;7392373;19;20036;-77
2022/05/25 10:59:57;;;;;;;2.00;0.65;;;;;;;;;;7391082;19;20327;-79
2022/05/25 11:03:06;;;;;;;1.30;0.40;;;;;;;;;;7386740;19;20015;-75
2022/05/25 11:05:52;;;;;;;0.85;0.47;;;;;;;;;;7389358;19;20026;-77
2022/05/25 11:08:33;;;;;;;0.50;0.50;;;;;;;;;;7390776;19;20010;-77
2022/05/25 11:11:07;;;;;;;1.42;0.60;;;;;;;;;;7389204;19;20006;-77
2022/05/25 11:14:01;;;;;;;0.45;0.40;;;;;;;;;;7389856;19;20030;-77
2022/05/25 11:16:55;;;;;;;0.40;0.35;;;;;;;;;;7387205;19;20020;-77
2022/05/25 11:19:48;;;;;;;0.30;0.30;;;;;;;;;;7388606;19;20027;-76
2022/05/25 11:22:13;;;;;;;1.90;0.88;;;;;;;;;;7390944;19;20446;-76
2022/05/25 11:24:49;;;;;;;2.83;0.50;;;;;;;;;;7390673;19;20030;-76
2022/05/25 11:27:15;;;;;;;5.25;3.20;;;;;;;;;;7391326;19;20259;-78
2022/05/25 11:29:58;;;;;;;1.93;1.17;;;;;;;;;;7389005;19;20040;-77
2022/05/25 11:32:34;;;;;;;1.42;0.93;;;;;;;;;;7388165;19;20287;-77
2022/05/25 11:35:11;;;;;;;0.90;0.40;;;;;;;;;;7391170;19;20038;-76
2022/05/25 11:37:53;;;;;;;0.75;0.45;;;;;;;;;;7390658;19;20038;-76
2022/05/25 11:40:21;;;;;;;1.25;0.50;;;;;;;;;;7389593;19;20518;-76
2022/05/25 11:43:01;;;;;;;0.88;0.25;;;;;;;;;;7390021;19;20006;-76
2022/05/25 11:45:59;;;;;;;2.55;0.38;;;;;;;;;;7386688;19;20122;-75
2022/05/25 11:48:30;;;;;;;1.20;0.40;;;;;;;;;;7385696;19;20029;-77
2022/05/25 11:51:14;;;;;;;0.95;0.40;;;;;;;;;;7390434;19;20005;-77
2022/05/25 11:53:58;;;;;;;2.88;0.40;;;;;;;;;;7386558;19;20010;-77
2022/05/25 11:56:36;;;;;;;1.60;0.40;;;;;;;;;;7393600;19;20011;-78
2022/05/25 11:59:44;;;;;;;1.55;0.30;;;;;;;;;;7391363;19;20021;-78
2022/05/25 12:02:40;;;;;;;1.27;0.25;;;;;;;;;;7393776;19;20022;-77
2022/05/25 12:05:24;;;;;;;0.40;0.32;;;;;;;;;;7389306;19;20010;-78
2022/05/25 12:07:52;;;;;;;0.88;0.30;;;;;;;;;;7390420;19;20014;-79
2022/05/25 12:10:23;;;;;;;0.90;0.38;;;;;;;;;;7392065;19;20023;-78
2022/05/25 12:13:06;;;;;;;0.20;0.20;;;;;;;;;;7391719;19;20050;-77
2022/05/25 12:15:35;;;;;;;1.48;0.40;;;;;;;;;;7390115;19;20014;-78
2022/05/25 12:18:15;;;;;;;2.65;0.40;;;;;;;;;;7392479;19;20006;-79
2022/05/25 12:20:49;;;;;;;0.60;0.38;;;;;;;;;;7392328;19;20050;-79
2022/05/25 12:23:21;;;;;;;2.80;0.40;;;;;;;;;;7390035;19;20003;-78
2022/05/25 12:25:56;;;;;;;0.65;0.40;;;;;;;;;;7385502;19;20055;-77
2022/05/25 12:28:31;;;;;;;0.93;0.40;;;;;;;;;;7389614;19;20705;-77
2022/05/25 12:31:01;;;;;;;1.10;0.50;;;;;;;;;;7377464;19;19995;-77
2022/05/25 12:33:27;;;;;;;1.30;0.52;;;;;;;;;;7387830;19;20018;-77
2022/05/25 12:35:53;;;;;;;1.40;0.52;;;;;;;;;;7381804;19;19999;-75
2022/05/25 12:38:20;;;;;;;1.08;0.47;;;;;;;;;;7383425;19;20033;-77
2022/05/25 12:40:48;;;;;;;1.27;0.38;;;;;;;;;;7386497;19;20013;-77
2022/05/25 12:43:49;;;;;;;1.27;0.22;;;;;;;;;;7389340;19;20114;-76
2022/05/25 12:49:07;;;;;;;0.57;0.43;;;;;;;;;;7391122;19;20018;-77
2022/05/25 12:51:44;;;;;;;0.68;0.52;;;;;;;;;;7394107;19;20074;-77
2022/05/25 12:54:22;;;;;;;2.55;0.55;;;;;;;;;;7394509;19;20637;-76
2022/05/25 12:56:49;;;;;;;2.45;0.40;;;;;;;;;;7395794;19;20006;-76
2022/05/25 12:59:44;;;;;;;0.52;0.50;;;;;;;;;;7392884;19;20130;-77
2022/05/25 13:02:18;;;;;;;1.83;0.40;;;;;;;;;;7391834;19;20073;-76
2022/05/25 13:04:47;;;;;;;1.67;0.30;;;;;;;;;;7394248;19;20115;-74
2022/05/25 13:07:34;;;;;;;0.60;0.55;;;;;;;;;;7395977;19;20015;-77
2022/05/25 13:10:00;;;;;;;1.83;0.40;;;;;;;;;;7391416;19;20025;-76
2022/05/25 13:12:42;;;;;;;0.45;0.35;;;;;;;;;;7395404;19;20558;-76
2022/05/25 13:15:17;;;;;;;0.93;0.57;;;;;;;;;;7393146;19;20034;-76
2022/05/25 13:17:53;;;;;;;0.47;0.32;;;;;;;;;;7394829;19;20031;-77
2022/05/25 13:20:28;;;;;;;0.82;0.38;;;;;;;;;;7396113;19;20021;-78
2022/05/25 13:22:57;;;;;;;0.37;0.37;;;;;;;;;;7395398;19;20011;-77
2022/05/25 13:25:49;;;;;;;0.30;0.30;;;;;;;;;;7394385;19;20022;-77
2022/05/25 13:28:27;;;;;;;1.48;0.60;;;;;;;;;;7393903;19;20014;-76
2022/05/25 13:31:10;;;;;;;0.45;0.40;;;;;;;;;;7394500;19;20006;-77
2022/05/25 13:33:39;;;;;;;1.45;0.30;;;;;;;;;;7398711;19;20010;-77
2022/05/25 13:36:13;;;;;;;2.00;0.32;;;;;;;;;;7395700;19;20022;-78
2022/05/25 13:38:57;;;;;;;0.63;0.43;;;;;;;;;;7396722;19;20016;-77
2022/05/25 13:41:26;;;;;;;0.73;0.50;;;;;;;;;;7401302;19;20001;-78
2022/05/25 13:44:06;;;;;;;0.98;0.30;;;;;;;;;;7401812;19;20201;-76
2022/05/25 13:46:46;;;;;;;0.38;0.32;;;;;;;;;;7403422;19;20026;-77
2022/05/25 13:49:31;;;;;;;0.57;0.40;;;;;;;;;;7396407;19;20028;-78
2022/05/25 13:52:26;;;;;;;;;;;;;;;;;;7402345;19;20022;-77
2022/05/25 13:55:23;;;;;;;0.30;0.30;;;;;;;;;;7397237;19;19918;-76
2022/05/25 13:57:51;;;;;;;1.83;0.30;;;;;;;;;;7402354;19;20002;-79
2022/05/25 14:00:20;;;;;;;1.55;0.40;;;;;;;;;;7401254;19;20470;-78
2022/05/25 14:02:49;;;;;;;1.45;0.38;;;;;;;;;;7404611;19;20014;-78
2022/05/25 14:05:23;;;;;;;1.73;0.30;;;;;;;;;;7399649;19;20027;-79
2022/05/25 14:07:50;;;;;;;0.90;0.37;;;;;;;;;;7401225;19;20002;-79
2022/05/25 14:13:27;;;;;;;0.47;0.30;;;;;;;;;;7402428;19;20480;-79
2022/05/25 14:15:59;;;;;;;1.23;0.32;;;;;;;;;;7397641;19;20021;-78
2022/05/25 14:18:26;;;;;;;0.65;0.35;;;;;;;;;;7400876;19;20025;-78
2022/05/25 14:20:52;;;;;;;3.20;0.40;;;;;;;;;;7399807;19;20348;-78
2022/05/25 14:23:23;;;;;;;0.25;0.25;;;;;;;;;;7400367;19;20007;-78
2022/05/25 14:25:56;;;;;;;1.52;0.43;;;;;;;;;;7400525;19;20037;-78
2022/05/25 14:28:31;;;;;;;1.05;0.32;;;;;;;;;;7403569;19;19990;-79
2022/05/25 14:30:57;;;;;;;0.68;0.40;;;;;;;;;;7400002;19;20003;-78
2022/05/25 14:33:23;;;;;;;0.77;0.50;;;;;;;;;;7396607;19;20022;-79
2022/05/25 14:35:53;;;;;;;1.45;0.55;;;;;;;;;;7398690;19;20017;-78
2022/05/25 14:38:20;;;;;;;0.77;0.55;;;;;;;;;;7402905;19;20022;-79
2022/05/25 14:40:49;;;;;;;0.73;0.40;;;;;;;;;;7401549;19;20008;-80
2022/05/25 14:43:33;;;;;;;1.00;0.40;;;;;;;;;;7395331;19;20014;-78
2022/05/25 14:46:07;;;;;;;1.63;0.37;;;;;;;;;;7397056;19;20010;-78
2022/05/25 14:48:32;;;;;;;0.85;0.50;;;;;;;;;;7400127;19;20267;-79
2022/05/25 14:51:01;;;;;;;0.47;0.30;;;;;;;;;;7401248;19;20026;-77
2022/05/25 14:53:33;;;;;;;0.43;0.20;;;;;;;;;;7397422;19;20007;-77
2022/05/25 14:56:06;;;;;;;0.30;0.30;;;;;;;;;;7399348;19;20351;-79
2022/05/25 14:58:51;;;;;;;1.77;0.32;;;;;;;;;;7399919;19;20093;-78
2022/05/25 15:01:28;;;;;;;1.00;0.40;;;;;;;;;;7392385;19;20014;-78
2022/05/25 15:03:54;;;;;;;0.63;0.55;;;;;;;;;;7389444;19;20375;-76
2022/05/25 15:06:22;;;;;;;0.73;0.50;;;;;;;;;;7393852;19;20018;-78
2022/05/25 15:08:50;;;;;;;0.77;0.30;;;;;;;;;;7397204;19;20011;-78
2022/05/25 15:11:21;;;;;;;2.60;0.50;;;;;;;;;;7397100;19;20017;-78
2022/05/25 15:19:28;;;;;;;3.83;0.30;;;;;;;;;;7394904;19;19925;-77
2022/05/25 15:21:54;;;;;;;0.93;0.45;;;;;;;;;;7396769;19;20340;-78
2022/05/25 15:24:22;;;;;;;0.63;0.38;;;;;;;;;;7394089;19;20017;-79
2022/05/25 15:26:56;;;;;;;1.27;0.40;;;;;;;;;;7395321;19;20014;-79
2022/05/25 15:29:22;;;;;;;1.23;0.43;;;;;;;;;;7396223;19;20083;-79
2022/05/25 15:31:48;;;;;;;0.40;0.40;;;;;;;;;;7392246;19;20010;-78
2022/05/25 15:34:14;;;;;;;1.00;0.40;;;;;;;;;;7390041;19;20451;-79
2022/05/25 15:36:39;;;;;;;0.93;0.52;;;;;;;;;;7395378;19;20011;-77
2022/05/25 15:39:05;;;;;;;0.98;0.30;;;;;;;;;;7394306;19;20006;-76
2022/05/25 15:41:30;;;;;;;1.52;0.40;;;;;;;;;;7395212;19;20015;-77
2022/05/25 15:43:55;;;;;;;0.57;0.40;;;;;;;;;;7383750;19;20034;-76
2022/05/25 15:46:23;;;;;;;0.35;0.30;;;;;;;;;;7395060;19;20050;-76
2022/05/25 15:48:50;;;;;;;0.57;0.40;;;;;;;;;;7395527;19;20098;-79